OIII Airport Information

Runway Information
Runway 09 Length 1554 ft width 130 ft
Elevation 0 ft Threshold 0 ft Heading 89
Runway 27 Length 1554 ft Width 130 ft
Elevation 0 ft Threshold 0 ft Heading 269
Runway 11L Length 13098 ft width 148 ft
Elevation 3962 ft Threshold 0 ft Heading 109
Runway 29R Length 13098 ft Width 148 ft
Elevation 3797 ft Threshold 0 ft Heading 289
Runway 11R Length 13248 ft width 197 ft
Elevation 3949 ft Threshold 3075 ft Heading 109
Runway 29L Length 13248 ft Width 197 ft
Elevation 3794 ft Threshold 0 ft Heading 289
Airport Frequencies
Type APP Name APP Frequency 119.7 MHZ
Type ATIS Name ATIS Frequency 128 MHZ
Type GND Name GND Frequency 121.7 MHZ
Type TWR Name TWR Frequency 118.1 MHZ
Airport Navaids
Type TACAN Name Tehran Frequency 113300 KHZ
Type VOR-DME Name Tehran Frequency 115300 KHZ
Airport Weather Information & NOTAM
ADDS - METARS form results

(1247 UTC 19 June 2021)
Data provider http://aviationweather.gov/metar/data/
 
METAR text: OIII 191230Z 10010KT CAVOK 36/M05 Q1014 A2997
Conditions at: OIII (TEHRAN/MEHRABAD , IR) observed 1230 UTC 19 June 2021
Temperature: 36.0°C (97°F)
Dewpoint: -5.0°C (23°F) [RH =  7%]
Pressure (altimeter): 29.94 inches Hg (1014.0 mb)
Winds: from the E (100 degrees) at 12 MPH (10 knots; 5.1 m/s)
Visibility: 6 or more miles (10+ km)
Ceiling: ceiling and visibility are OK
Clouds: unknown
Weather: no significant weather observed at this time

METAR text: OIII 191200Z 18012KT CAVOK 36/M05 Q1015 A2998 NOSIG
Conditions at: OIII (TEHRAN/MEHRABAD , IR) observed 1200 UTC 19 June 2021
Temperature: 36.0°C (97°F)
Dewpoint: -5.0°C (23°F) [RH =  7%]
Pressure (altimeter): 29.97 inches Hg (1015.0 mb)
Winds: from the S (180 degrees) at 14 MPH (12 knots; 6.2 m/s)
Visibility: 6 or more miles (10+ km)
Ceiling: ceiling and visibility are OK
Clouds: unknown
Weather: no significant weather observed at this time

Forecast for: OIII (TEHRAN/MEHRABAD , IR)
Text: TAF OIII 191150Z 1912/2018 12008KT 8000 NSC
Forecast period: 1200 UTC 19 June 2021 to 1800 UTC 20 June 2021
Forecast type: FROM: standard forecast or significant change
Winds: from the ESE (120 degrees) at 9 MPH (8 knots; 4.1 m/s)
Visibility: 5 miles (8 km)
Ceiling: unknown
Clouds: missing
Weather: no significant weather forecast for this period
Text: TEMPO 1912/1916 20016KT
Forecast period: 1200 to 1600 UTC 19 June 2021
Forecast type: TEMPORARY: The following changes expected for less than half the time period
Winds: from the SSW (200 degrees) at 18 MPH (16 knots; 8.2 m/s)
Visibility: missing
Ceiling: unknown
Clouds: missing
Weather: no significant weather forecast for this period
Text: TEMPO 2006/2015 20018KT
Forecast period: 0600 to 1500 UTC 20 June 2021
Forecast type: TEMPORARY: The following changes expected for less than half the time period
Winds: from the SSW (200 degrees) at 21 MPH (18 knots; 9.3 m/s)
Visibility: missing
Ceiling: unknown
Clouds: missing
Weather: no significant weather forecast for this period